sensor_id;sensor_type;location;lat;lon;timestamp;temperature;humidity
71173;DHT22;58875;51.996;4.504;2023-12-14T00:02:13;7.21;82.91
71173;DHT22;58875;51.996;4.504;2023-12-14T00:04:41;7.30;83.16
71173;DHT22;58875;51.996;4.504;2023-12-14T00:07:06;7.31;82.62
71173;DHT22;58875;51.996;4.504;2023-12-14T00:09:32;7.28;82.47
71173;DHT22;58875;51.996;4.504;2023-12-14T00:11:58;7.25;82.36
71173;DHT22;58875;51.996;4.504;2023-12-14T00:14:29;7.36;82.76
71173;DHT22;58875;51.996;4.504;2023-12-14T00:16:55;7.42;82.45
71173;DHT22;58875;51.996;4.504;2023-12-14T00:19:24;7.42;81.96
71173;DHT22;58875;51.996;4.504;2023-12-14T00:21:50;7.38;81.80
71173;DHT22;58875;51.996;4.504;2023-12-14T00:24:15;7.38;81.95
71173;DHT22;58875;51.996;4.504;2023-12-14T00:26:41;7.41;81.90
71173;DHT22;58875;51.996;4.504;2023-12-14T00:29:06;7.44;82.08
71173;DHT22;58875;51.996;4.504;2023-12-14T00:31:32;7.40;81.78
71173;DHT22;58875;51.996;4.504;2023-12-14T00:33:58;7.30;81.95
71173;DHT22;58875;51.996;4.504;2023-12-14T00:36:26;7.27;82.20
71173;DHT22;58875;51.996;4.504;2023-12-14T00:38:51;7.21;82.47
71173;DHT22;58875;51.996;4.504;2023-12-14T00:41:17;7.18;82.65
71173;DHT22;58875;51.996;4.504;2023-12-14T00:43:45;7.18;82.46
71173;DHT22;58875;51.996;4.504;2023-12-14T00:46:11;7.13;82.71
71173;DHT22;58875;51.996;4.504;2023-12-14T00:48:37;7.10;82.75
71173;DHT22;58875;51.996;4.504;2023-12-14T00:51:06;7.05;82.85
71173;DHT22;58875;51.996;4.504;2023-12-14T00:53:34;7.04;82.77
71173;DHT22;58875;51.996;4.504;2023-12-14T00:56:00;7.04;82.89
71173;DHT22;58875;51.996;4.504;2023-12-14T00:58:30;7.07;83.07
71173;DHT22;58875;51.996;4.504;2023-12-14T01:00:56;7.18;82.97
71173;DHT22;58875;51.996;4.504;2023-12-14T01:03:22;7.17;82.48
71173;DHT22;58875;51.996;4.504;2023-12-14T01:05:48;7.14;82.39
71173;DHT22;58875;51.996;4.504;2023-12-14T01:08:13;7.13;82.57
71173;DHT22;58875;51.996;4.504;2023-12-14T01:10:40;7.15;82.56
71173;DHT22;58875;51.996;4.504;2023-12-14T01:13:05;7.14;82.35
71173;DHT22;58875;51.996;4.504;2023-12-14T01:15:31;7.13;82.09
71173;DHT22;58875;51.996;4.504;2023-12-14T01:17:57;7.15;82.12
71173;DHT22;58875;51.996;4.504;2023-12-14T01:20:26;7.11;82.04
71173;DHT22;58875;51.996;4.504;2023-12-14T01:22:52;7.10;82.31
71173;DHT22;58875;51.996;4.504;2023-12-14T01:25:18;7.05;82.15
71173;DHT22;58875;51.996;4.504;2023-12-14T01:27:43;7.01;82.36
71173;DHT22;58875;51.996;4.504;2023-12-14T01:30:09;7.03;82.36
71173;DHT22;58875;51.996;4.504;2023-12-14T01:32:35;7.04;82.57
71173;DHT22;58875;51.996;4.504;2023-12-14T01:35:01;7.13;82.45
71173;DHT22;58875;51.996;4.504;2023-12-14T01:37:26;7.11;82.33
71173;DHT22;58875;51.996;4.504;2023-12-14T01:39:54;7.11;82.29
71173;DHT22;58875;51.996;4.504;2023-12-14T01:42:20;7.10;81.98
71173;DHT22;58875;51.996;4.504;2023-12-14T01:44:48;7.05;81.93
71173;DHT22;58875;51.996;4.504;2023-12-14T01:47:14;7.04;81.95
71173;DHT22;58875;51.996;4.504;2023-12-14T01:49:39;6.99;82.12
71173;DHT22;58875;51.996;4.504;2023-12-14T01:52:06;7.04;82.16
71173;DHT22;58875;51.996;4.504;2023-12-14T01:54:32;7.07;81.92
71173;DHT22;58875;51.996;4.504;2023-12-14T01:56:59;7.11;81.86
71173;DHT22;58875;51.996;4.504;2023-12-14T01:59:24;7.03;81.72
71173;DHT22;58875;51.996;4.504;2023-12-14T02:01:55;6.97;81.88
71173;DHT22;58875;51.996;4.504;2023-12-14T02:04:24;7.03;81.50
71173;DHT22;58875;51.996;4.504;2023-12-14T02:06:50;7.05;81.27
71173;DHT22;58875;51.996;4.504;2023-12-14T02:09:16;7.04;81.49
71173;DHT22;58875;51.996;4.504;2023-12-14T02:11:42;7.10;81.36
71173;DHT22;58875;51.996;4.504;2023-12-14T02:14:11;7.10;81.58
71173;DHT22;58875;51.996;4.504;2023-12-14T02:16:37;7.14;81.35
71173;DHT22;58875;51.996;4.504;2023-12-14T02:19:06;7.14;81.00
71173;DHT22;58875;51.996;4.504;2023-12-14T02:21:31;7.14;81.10
71173;DHT22;58875;51.996;4.504;2023-12-14T02:23:57;7.18;81.11
71173;DHT22;58875;51.996;4.504;2023-12-14T02:26:23;7.24;81.07
71173;DHT22;58875;51.996;4.504;2023-12-14T02:28:52;7.27;80.83
71173;DHT22;58875;51.996;4.504;2023-12-14T02:31:19;7.20;80.83
71173;DHT22;58875;51.996;4.504;2023-12-14T02:33:45;7.13;80.80
71173;DHT22;58875;51.996;4.504;2023-12-14T02:36:10;7.08;81.04
71173;DHT22;58875;51.996;4.504;2023-12-14T02:38:36;7.07;81.22
71173;DHT22;58875;51.996;4.504;2023-12-14T02:41:02;7.11;81.18
71173;DHT22;58875;51.996;4.504;2023-12-14T02:43:27;7.08;81.16
71173;DHT22;58875;51.996;4.504;2023-12-14T02:45:53;7.01;81.75
71173;DHT22;58875;51.996;4.504;2023-12-14T02:48:22;7.00;81.62
71173;DHT22;58875;51.996;4.504;2023-12-14T02:50:48;7.01;81.53
71173;DHT22;58875;51.996;4.504;2023-12-14T02:53:14;7.04;81.63
71173;DHT22;58875;51.996;4.504;2023-12-14T02:55:39;7.08;81.36
71173;DHT22;58875;51.996;4.504;2023-12-14T02:58:07;7.14;81.23
71173;DHT22;58875;51.996;4.504;2023-12-14T03:00:35;7.17;81.06
71173;DHT22;58875;51.996;4.504;2023-12-14T03:03:01;7.13;81.13
71173;DHT22;58875;51.996;4.504;2023-12-14T03:05:27;7.10;81.02
71173;DHT22;58875;51.996;4.504;2023-12-14T03:07:52;7.04;80.99
71173;DHT22;58875;51.996;4.504;2023-12-14T03:10:18;7.00;81.08
71173;DHT22;58875;51.996;4.504;2023-12-14T03:12:45;7.05;81.07
71173;DHT22;58875;51.996;4.504;2023-12-14T03:15:11;7.03;81.04
71173;DHT22;58875;51.996;4.504;2023-12-14T03:17:36;7.08;81.02
71173;DHT22;58875;51.996;4.504;2023-12-14T03:20:02;7.11;80.72
71173;DHT22;58875;51.996;4.504;2023-12-14T03:22:30;7.07;80.80
71173;DHT22;58875;51.996;4.504;2023-12-14T03:24:58;7.13;81.14
71173;DHT22;58875;51.996;4.504;2023-12-14T03:27:24;7.13;80.84
71173;DHT22;58875;51.996;4.504;2023-12-14T03:29:52;7.11;80.86
71173;DHT22;58875;51.996;4.504;2023-12-14T03:32:18;7.07;81.01
71173;DHT22;58875;51.996;4.504;2023-12-14T03:34:44;7.14;81.10
71173;DHT22;58875;51.996;4.504;2023-12-14T03:37:09;7.14;81.07
71173;DHT22;58875;51.996;4.504;2023-12-14T03:39:37;7.07;80.86
71173;DHT22;58875;51.996;4.504;2023-12-14T03:42:03;7.05;81.17
71173;DHT22;58875;51.996;4.504;2023-12-14T03:44:28;7.04;80.84
71173;DHT22;58875;51.996;4.504;2023-12-14T03:46:54;7.04;80.97
71173;DHT22;58875;51.996;4.504;2023-12-14T03:49:21;7.01;80.93
71173;DHT22;58875;51.996;4.504;2023-12-14T03:51:46;7.00;80.85
71173;DHT22;58875;51.996;4.504;2023-12-14T03:54:12;6.93;80.92
71173;DHT22;58875;51.996;4.504;2023-12-14T03:56:38;6.90;80.86
71173;DHT22;58875;51.996;4.504;2023-12-14T03:59:07;6.99;80.96
71173;DHT22;58875;51.996;4.504;2023-12-14T04:01:32;7.03;80.67
71173;DHT22;58875;51.996;4.504;2023-12-14T04:03:59;7.01;80.69
71173;DHT22;58875;51.996;4.504;2023-12-14T04:06:25;6.96;80.30
71173;DHT22;58875;51.996;4.504;2023-12-14T04:09:00;6.96;80.44
71173;DHT22;58875;51.996;4.504;2023-12-14T04:11:25;6.97;80.29
71173;DHT22;58875;51.996;4.504;2023-12-14T04:13:55;6.93;80.25
71173;DHT22;58875;51.996;4.504;2023-12-14T04:16:30;6.91;80.13
71173;DHT22;58875;51.996;4.504;2023-12-14T04:18:56;6.97;80.03
71173;DHT22;58875;51.996;4.504;2023-12-14T04:21:25;6.97;79.74
71173;DHT22;58875;51.996;4.504;2023-12-14T04:23:51;6.96;79.99
71173;DHT22;58875;51.996;4.504;2023-12-14T04:26:17;7.03;79.73
71173;DHT22;58875;51.996;4.504;2023-12-14T04:28:42;7.01;79.67
71173;DHT22;58875;51.996;4.504;2023-12-14T04:31:09;6.96;79.30
71173;DHT22;58875;51.996;4.504;2023-12-14T04:33:35;6.96;79.30
71173;DHT22;58875;51.996;4.504;2023-12-14T04:36:07;6.97;79.21
71173;DHT22;58875;51.996;4.504;2023-12-14T04:38:35;7.01;78.88
71173;DHT22;58875;51.996;4.504;2023-12-14T04:41:03;7.03;78.89
71173;DHT22;58875;51.996;4.504;2023-12-14T04:43:29;7.04;78.46
71173;DHT22;58875;51.996;4.504;2023-12-14T04:45:58;6.99;78.34
71173;DHT22;58875;51.996;4.504;2023-12-14T04:48:26;6.93;78.63
71173;DHT22;58875;51.996;4.504;2023-12-14T04:50:55;7.03;78.43
71173;DHT22;58875;51.996;4.504;2023-12-14T04:53:25;7.00;78.04
71173;DHT22;58875;51.996;4.504;2023-12-14T04:55:50;6.99;78.09
71173;DHT22;58875;51.996;4.504;2023-12-14T04:58:19;7.00;78.22
71173;DHT22;58875;51.996;4.504;2023-12-14T05:00:44;7.01;78.54
71173;DHT22;58875;51.996;4.504;2023-12-14T05:03:10;6.99;78.48
71173;DHT22;58875;51.996;4.504;2023-12-14T05:05:39;6.96;78.22
71173;DHT22;58875;51.996;4.504;2023-12-14T05:08:05;6.89;78.60
71173;DHT22;58875;51.996;4.504;2023-12-14T05:10:33;6.94;78.57
71173;DHT22;58875;51.996;4.504;2023-12-14T05:12:59;6.91;78.37
71173;DHT22;58875;51.996;4.504;2023-12-14T05:15:25;6.94;78.38
71173;DHT22;58875;51.996;4.504;2023-12-14T05:18:01;6.99;78.37
71173;DHT22;58875;51.996;4.504;2023-12-14T05:20:31;7.03;78.18
71173;DHT22;58875;51.996;4.504;2023-12-14T05:23:00;7.08;78.03
71173;DHT22;58875;51.996;4.504;2023-12-14T05:25:26;7.04;77.72
71173;DHT22;58875;51.996;4.504;2023-12-14T05:27:51;7.05;78.00
71173;DHT22;58875;51.996;4.504;2023-12-14T05:30:17;7.08;78.12
71173;DHT22;58875;51.996;4.504;2023-12-14T05:32:45;7.04;77.20
71173;DHT22;58875;51.996;4.504;2023-12-14T05:35:11;6.96;76.78
71173;DHT22;58875;51.996;4.504;2023-12-14T05:37:42;6.90;76.99
71173;DHT22;58875;51.996;4.504;2023-12-14T05:40:25;6.87;77.14
71173;DHT22;58875;51.996;4.504;2023-12-14T05:42:54;6.90;77.05
71173;DHT22;58875;51.996;4.504;2023-12-14T05:45:20;6.91;77.31
71173;DHT22;58875;51.996;4.504;2023-12-14T05:47:48;6.97;77.46
71173;DHT22;58875;51.996;4.504;2023-12-14T05:50:18;7.00;77.56
71173;DHT22;58875;51.996;4.504;2023-12-14T05:52:47;7.01;77.61
71173;DHT22;58875;51.996;4.504;2023-12-14T05:55:16;7.11;77.79
71173;DHT22;58875;51.996;4.504;2023-12-14T05:57:47;7.11;77.73
71173;DHT22;58875;51.996;4.504;2023-12-14T06:00:14;7.08;77.62
71173;DHT22;58875;51.996;4.504;2023-12-14T06:02:41;7.04;77.43
71173;DHT22;58875;51.996;4.504;2023-12-14T06:05:11;7.01;76.99
71173;DHT22;58875;51.996;4.504;2023-12-14T06:07:46;6.96;77.09
71173;DHT22;58875;51.996;4.504;2023-12-14T06:10:11;6.86;77.09
71173;DHT22;58875;51.996;4.504;2023-12-14T06:12:37;6.82;77.21
71173;DHT22;58875;51.996;4.504;2023-12-14T06:15:07;6.84;77.37
71173;DHT22;58875;51.996;4.504;2023-12-14T06:17:33;6.77;77.08
71173;DHT22;58875;51.996;4.504;2023-12-14T06:20:01;6.73;77.32
71173;DHT22;58875;51.996;4.504;2023-12-14T06:22:30;6.66;77.26
71173;DHT22;58875;51.996;4.504;2023-12-14T06:24:56;6.70;77.43
71173;DHT22;58875;51.996;4.504;2023-12-14T06:27:24;6.68;77.43
71173;DHT22;58875;51.996;4.504;2023-12-14T06:29:54;6.57;77.54
71173;DHT22;58875;51.996;4.504;2023-12-14T06:32:19;6.60;77.64
71173;DHT22;58875;51.996;4.504;2023-12-14T06:34:45;6.59;77.60
71173;DHT22;58875;51.996;4.504;2023-12-14T06:37:20;6.65;77.44
71173;DHT22;58875;51.996;4.504;2023-12-14T06:39:48;6.66;77.74
71173;DHT22;58875;51.996;4.504;2023-12-14T06:42:14;6.60;77.41
71173;DHT22;58875;51.996;4.504;2023-12-14T06:44:40;6.59;77.39
71173;DHT22;58875;51.996;4.504;2023-12-14T06:47:08;6.63;77.45
71173;DHT22;58875;51.996;4.504;2023-12-14T06:52:43;6.62;77.53
71173;DHT22;58875;51.996;4.504;2023-12-14T06:55:16;6.63;77.52
71173;DHT22;58875;51.996;4.504;2023-12-14T06:57:47;6.63;77.64
71173;DHT22;58875;51.996;4.504;2023-12-14T07:00:23;6.57;77.69
71173;DHT22;58875;51.996;4.504;2023-12-14T07:02:49;6.53;77.63
71173;DHT22;58875;51.996;4.504;2023-12-14T07:05:16;6.46;77.70
71173;DHT22;58875;51.996;4.504;2023-12-14T07:07:45;6.43;77.96
71173;DHT22;58875;51.996;4.504;2023-12-14T07:10:14;6.42;78.20
71173;DHT22;58875;51.996;4.504;2023-12-14T07:12:39;6.45;78.30
71173;DHT22;58875;51.996;4.504;2023-12-14T07:15:11;6.42;78.22
71173;DHT22;58875;51.996;4.504;2023-12-14T07:17:39;6.45;78.20
71173;DHT22;58875;51.996;4.504;2023-12-14T07:20:06;6.43;78.16
71173;DHT22;58875;51.996;4.504;2023-12-14T07:22:32;6.42;78.32
71173;DHT22;58875;51.996;4.504;2023-12-14T07:25:00;6.39;78.28
71173;DHT22;58875;51.996;4.504;2023-12-14T07:27:25;6.41;78.01
71173;DHT22;58875;51.996;4.504;2023-12-14T07:29:51;6.35;78.19
71173;DHT22;58875;51.996;4.504;2023-12-14T07:32:17;6.35;77.95
71173;DHT22;58875;51.996;4.504;2023-12-14T07:34:43;6.31;78.00
71173;DHT22;58875;51.996;4.504;2023-12-14T07:37:09;6.25;78.33
71173;DHT22;58875;51.996;4.504;2023-12-14T07:39:39;6.21;78.24
71173;DHT22;58875;51.996;4.504;2023-12-14T07:42:05;6.21;78.40
71173;DHT22;58875;51.996;4.504;2023-12-14T07:44:31;6.17;78.31
71173;DHT22;58875;51.996;4.504;2023-12-14T07:46:59;6.11;78.22
71173;DHT22;58875;51.996;4.504;2023-12-14T07:49:25;6.12;78.19
71173;DHT22;58875;51.996;4.504;2023-12-14T07:51:51;6.05;78.21
71173;DHT22;58875;51.996;4.504;2023-12-14T07:54:18;6.04;78.39
71173;DHT22;58875;51.996;4.504;2023-12-14T07:56:44;6.02;78.50
71173;DHT22;58875;51.996;4.504;2023-12-14T07:59:15;6.00;78.41
71173;DHT22;58875;51.996;4.504;2023-12-14T08:01:41;5.95;78.46
71173;DHT22;58875;51.996;4.504;2023-12-14T08:07:39;5.88;78.58
71173;DHT22;58875;51.996;4.504;2023-12-14T08:10:07;5.86;78.84
71173;DHT22;58875;51.996;4.504;2023-12-14T08:12:36;5.84;78.90
71173;DHT22;58875;51.996;4.504;2023-12-14T08:15:05;5.81;79.01
71173;DHT22;58875;51.996;4.504;2023-12-14T08:17:33;5.83;79.37
71173;DHT22;58875;51.996;4.504;2023-12-14T08:19:59;5.81;79.38
71173;DHT22;58875;51.996;4.504;2023-12-14T08:22:24;5.87;79.48
71173;DHT22;58875;51.996;4.504;2023-12-14T08:24:53;5.90;79.62
71173;DHT22;58875;51.996;4.504;2023-12-14T08:27:19;5.91;79.72
71173;DHT22;58875;51.996;4.504;2023-12-14T08:29:50;5.95;79.80
71173;DHT22;58875;51.996;4.504;2023-12-14T08:32:18;6.02;79.95
71173;DHT22;58875;51.996;4.504;2023-12-14T08:34:46;6.04;79.97
71173;DHT22;58875;51.996;4.504;2023-12-14T08:37:16;6.10;80.20
71173;DHT22;58875;51.996;4.504;2023-12-14T08:39:51;6.24;80.16
71173;DHT22;58875;51.996;4.504;2023-12-14T08:42:33;6.29;80.21
71173;DHT22;58875;51.996;4.504;2023-12-14T08:45:32;6.43;79.96
71173;DHT22;58875;51.996;4.504;2023-12-14T08:48:08;6.54;79.87
71173;DHT22;58875;51.996;4.504;2023-12-14T08:50:46;6.68;79.94
71173;DHT22;58875;51.996;4.504;2023-12-14T08:53:26;6.79;79.51
71173;DHT22;58875;51.996;4.504;2023-12-14T08:56:14;6.80;78.84
71173;DHT22;58875;51.996;4.504;2023-12-14T08:58:49;6.76;79.26
71173;DHT22;58875;51.996;4.504;2023-12-14T09:04:34;7.03;79.20
71173;DHT22;58875;51.996;4.504;2023-12-14T09:15:09;7.31;78.37
71173;DHT22;58875;51.996;4.504;2023-12-14T09:17:38;7.35;78.53
71173;DHT22;58875;51.996;4.504;2023-12-14T09:20:04;7.38;77.96
71173;DHT22;58875;51.996;4.504;2023-12-14T09:22:31;7.28;78.03
71173;DHT22;58875;51.996;4.504;2023-12-14T09:24:56;7.31;78.34
71173;DHT22;58875;51.996;4.504;2023-12-14T09:27:23;7.35;78.35
71173;DHT22;58875;51.996;4.504;2023-12-14T09:43:39;6.99;76.99
71173;DHT22;58875;51.996;4.504;2023-12-14T09:49:54;6.65;77.67
71173;DHT22;58875;51.996;4.504;2023-12-14T09:56:01;6.77;78.16
71173;DHT22;58875;51.996;4.504;2023-12-14T10:11:28;7.34;76.30
71173;DHT22;58875;51.996;4.504;2023-12-14T10:14:27;7.38;76.15
71173;DHT22;58875;51.996;4.504;2023-12-14T10:16:56;7.42;76.21
71173;DHT22;58875;51.996;4.504;2023-12-14T10:19:28;7.52;76.37
71173;DHT22;58875;51.996;4.504;2023-12-14T10:22:04;7.59;76.29
71173;DHT22;58875;51.996;4.504;2023-12-14T10:24:35;7.52;75.42
71173;DHT22;58875;51.996;4.504;2023-12-14T10:27:06;7.61;76.04
71173;DHT22;58875;51.996;4.504;2023-12-14T10:29:33;7.79;75.92
71173;DHT22;58875;51.996;4.504;2023-12-14T10:32:03;7.92;75.40
71173;DHT22;58875;51.996;4.504;2023-12-14T10:34:32;7.99;75.01
71173;DHT22;58875;51.996;4.504;2023-12-14T10:36:59;8.13;74.55
71173;DHT22;58875;51.996;4.504;2023-12-14T10:39:26;8.04;73.36
71173;DHT22;58875;51.996;4.504;2023-12-14T10:41:53;7.99;73.88
71173;DHT22;58875;51.996;4.504;2023-12-14T10:44:21;7.99;74.49
71173;DHT22;58875;51.996;4.504;2023-12-14T10:46:55;8.02;74.23
71173;DHT22;58875;51.996;4.504;2023-12-14T10:49:25;8.12;74.51
71173;DHT22;58875;51.996;4.504;2023-12-14T10:51:56;8.16;73.97
71173;DHT22;58875;51.996;4.504;2023-12-14T10:54:25;8.12;73.98
71173;DHT22;58875;51.996;4.504;2023-12-14T10:56:55;8.09;73.75
71173;DHT22;58875;51.996;4.504;2023-12-14T10:59:24;8.00;74.08
71173;DHT22;58875;51.996;4.504;2023-12-14T11:01:54;7.83;74.18
71173;DHT22;58875;51.996;4.504;2023-12-14T11:04:23;7.66;74.46
71173;DHT22;58875;51.996;4.504;2023-12-14T11:06:49;7.58;75.16
71173;DHT22;58875;51.996;4.504;2023-12-14T11:09:18;7.69;75.70
71173;DHT22;58875;51.996;4.504;2023-12-14T11:14:19;8.03;75.23
71173;DHT22;58875;51.996;4.504;2023-12-14T11:16:47;8.10;74.55
71173;DHT22;58875;51.996;4.504;2023-12-14T11:24:29;7.66;74.17
71173;DHT22;58875;51.996;4.504;2023-12-14T11:26:55;7.59;74.97
71173;DHT22;58875;51.996;4.504;2023-12-14T11:29:21;7.59;75.42
71173;DHT22;58875;51.996;4.504;2023-12-14T11:31:47;7.71;75.76
71173;DHT22;58875;51.996;4.504;2023-12-14T11:34:16;7.66;75.37
71173;DHT22;58875;51.996;4.504;2023-12-14T11:36:42;7.54;75.68
71173;DHT22;58875;51.996;4.504;2023-12-14T11:39:11;7.54;75.75
71173;DHT22;58875;51.996;4.504;2023-12-14T11:41:38;7.63;76.23
71173;DHT22;58875;51.996;4.504;2023-12-14T11:44:04;7.54;75.37
71173;DHT22;58875;51.996;4.504;2023-12-14T11:46:30;7.55;75.78
71173;DHT22;58875;51.996;4.504;2023-12-14T11:48:57;7.61;75.86
71173;DHT22;58875;51.996;4.504;2023-12-14T11:51:23;7.66;76.17
71173;DHT22;58875;51.996;4.504;2023-12-14T11:53:51;7.72;75.63
71173;DHT22;58875;51.996;4.504;2023-12-14T11:56:17;7.65;75.78
71173;DHT22;58875;51.996;4.504;2023-12-14T11:58:44;7.65;75.98
71173;DHT22;58875;51.996;4.504;2023-12-14T12:01:17;7.61;76.64
71173;DHT22;58875;51.996;4.504;2023-12-14T12:03:44;7.72;76.89
71173;DHT22;58875;51.996;4.504;2023-12-14T12:06:21;7.75;76.99
71173;DHT22;58875;51.996;4.504;2023-12-14T12:08:48;7.86;77.30
71173;DHT22;58875;51.996;4.504;2023-12-14T12:11:21;7.87;76.82
71173;DHT22;58875;51.996;4.504;2023-12-14T12:13:51;7.90;76.86
71173;DHT22;58875;51.996;4.504;2023-12-14T12:16:17;7.75;76.78
71173;DHT22;58875;51.996;4.504;2023-12-14T12:18:42;7.78;77.65
71173;DHT22;58875;51.996;4.504;2023-12-14T12:21:08;7.87;77.79
71173;DHT22;58875;51.996;4.504;2023-12-14T12:23:35;7.78;76.45
71173;DHT22;58875;51.996;4.504;2023-12-14T12:26:00;7.68;76.98
71173;DHT22;58875;51.996;4.504;2023-12-14T12:28:27;7.76;76.96
71173;DHT22;58875;51.996;4.504;2023-12-14T12:30:53;7.76;77.24
71173;DHT22;58875;51.996;4.504;2023-12-14T12:33:18;7.73;76.55
71173;DHT22;58875;51.996;4.504;2023-12-14T12:35:45;7.78;76.84
71173;DHT22;58875;51.996;4.504;2023-12-14T12:38:11;7.89;76.75
71173;DHT22;58875;51.996;4.504;2023-12-14T12:40:36;7.85;76.58
71173;DHT22;58875;51.996;4.504;2023-12-14T12:43:02;7.82;76.24
71173;DHT22;58875;51.996;4.504;2023-12-14T12:45:27;7.81;76.72
71173;DHT22;58875;51.996;4.504;2023-12-14T12:47:53;7.75;76.49
71173;DHT22;58875;51.996;4.504;2023-12-14T12:50:19;7.78;77.32
71173;DHT22;58875;51.996;4.504;2023-12-14T12:52:53;7.76;77.45
71173;DHT22;58875;51.996;4.504;2023-12-14T12:55:19;7.87;77.34
71173;DHT22;58875;51.996;4.504;2023-12-14T12:57:44;7.85;77.05
71173;DHT22;58875;51.996;4.504;2023-12-14T13:00:10;7.71;77.40
71173;DHT22;58875;51.996;4.504;2023-12-14T13:02:40;7.78;77.62
71173;DHT22;58875;51.996;4.504;2023-12-14T13:05:06;7.78;77.52
71173;DHT22;58875;51.996;4.504;2023-12-14T13:07:33;7.69;77.89
71173;DHT22;58875;51.996;4.504;2023-12-14T13:09:59;7.71;77.94
71173;DHT22;58875;51.996;4.504;2023-12-14T13:12:24;7.66;78.07
71173;DHT22;58875;51.996;4.504;2023-12-14T13:14:50;7.78;78.42
71173;DHT22;58875;51.996;4.504;2023-12-14T13:17:16;7.93;78.65
71173;DHT22;58875;51.996;4.504;2023-12-14T13:19:44;8.03;78.45
71173;DHT22;58875;51.996;4.504;2023-12-14T13:22:10;8.04;78.19
71173;DHT22;58875;51.996;4.504;2023-12-14T13:24:39;8.17;78.05
71173;DHT22;58875;51.996;4.504;2023-12-14T13:27:05;8.20;77.90
71173;DHT22;58875;51.996;4.504;2023-12-14T13:29:31;8.24;78.07
71173;DHT22;58875;51.996;4.504;2023-12-14T13:31:58;8.37;77.96
71173;DHT22;58875;51.996;4.504;2023-12-14T13:34:26;8.33;77.20
71173;DHT22;58875;51.996;4.504;2023-12-14T13:36:51;8.27;77.57
71173;DHT22;58875;51.996;4.504;2023-12-14T13:39:17;8.19;77.58
71173;DHT22;58875;51.996;4.504;2023-12-14T13:41:43;8.02;78.06
71173;DHT22;58875;51.996;4.504;2023-12-14T13:44:08;7.94;78.44
71173;DHT22;58875;51.996;4.504;2023-12-14T13:46:34;7.97;78.80
71173;DHT22;58875;51.996;4.504;2023-12-14T13:49:00;8.02;78.97
71173;DHT22;58875;51.996;4.504;2023-12-14T13:51:26;8.16;78.68
71173;DHT22;58875;51.996;4.504;2023-12-14T13:53:52;8.20;78.66
71173;DHT22;58875;51.996;4.504;2023-12-14T13:56:17;8.22;78.66
71173;DHT22;58875;51.996;4.504;2023-12-14T13:58:43;8.12;78.89
71173;DHT22;58875;51.996;4.504;2023-12-14T14:01:11;8.12;79.37
71173;DHT22;58875;51.996;4.504;2023-12-14T14:03:36;8.07;79.38
71173;DHT22;58875;51.996;4.504;2023-12-14T14:06:04;8.14;79.81
71173;DHT22;58875;51.996;4.504;2023-12-14T14:08:30;8.22;79.83
71173;DHT22;58875;51.996;4.504;2023-12-14T14:10:59;8.34;79.70
71173;DHT22;58875;51.996;4.504;2023-12-14T14:13:25;8.20;79.46
71173;DHT22;58875;51.996;4.504;2023-12-14T14:15:51;8.17;79.96
71173;DHT22;58875;51.996;4.504;2023-12-14T14:18:17;8.07;80.03
71173;DHT22;58875;51.996;4.504;2023-12-14T14:20:42;8.13;80.37
71173;DHT22;58875;51.996;4.504;2023-12-14T14:23:08;8.23;80.44
71173;DHT22;58875;51.996;4.504;2023-12-14T14:25:33;8.20;80.06
71173;DHT22;58875;51.996;4.504;2023-12-14T14:27:59;8.22;80.31
71173;DHT22;58875;51.996;4.504;2023-12-14T14:30:25;8.19;80.13
71173;DHT22;58875;51.996;4.504;2023-12-14T14:32:51;8.23;80.24
71173;DHT22;58875;51.996;4.504;2023-12-14T14:35:17;8.12;79.82
71173;DHT22;58875;51.996;4.504;2023-12-14T14:37:43;8.10;80.43
71173;DHT22;58875;51.996;4.504;2023-12-14T14:40:16;8.19;80.18
71173;DHT22;58875;51.996;4.504;2023-12-14T14:42:43;8.14;80.28
71173;DHT22;58875;51.996;4.504;2023-12-14T14:45:10;8.17;80.14
71173;DHT22;58875;51.996;4.504;2023-12-14T14:47:37;8.12;80.33
71173;DHT22;58875;51.996;4.504;2023-12-14T14:50:03;8.13;80.52
71173;DHT22;58875;51.996;4.504;2023-12-14T14:52:33;8.16;80.39
71173;DHT22;58875;51.996;4.504;2023-12-14T14:54:59;8.22;80.66
71173;DHT22;58875;51.996;4.504;2023-12-14T14:57:25;8.23;80.22
71173;DHT22;58875;51.996;4.504;2023-12-14T14:59:51;8.24;80.50
71173;DHT22;58875;51.996;4.504;2023-12-14T15:02:16;8.32;80.22
71173;DHT22;58875;51.996;4.504;2023-12-14T15:04:42;8.34;79.83
71173;DHT22;58875;51.996;4.504;2023-12-14T15:07:07;8.30;79.89
71173;DHT22;58875;51.996;4.504;2023-12-14T15:09:33;8.36;80.12
71173;DHT22;58875;51.996;4.504;2023-12-14T15:11:59;8.43;79.82
71173;DHT22;58875;51.996;4.504;2023-12-14T15:14:24;8.34;79.63
71173;DHT22;58875;51.996;4.504;2023-12-14T15:16:56;8.37;79.72
71173;DHT22;58875;51.996;4.504;2023-12-14T15:19:22;8.33;79.54
71173;DHT22;58875;51.996;4.504;2023-12-14T15:21:48;8.34;79.81
71173;DHT22;58875;51.996;4.504;2023-12-14T15:24:13;8.38;79.76
71173;DHT22;58875;51.996;4.504;2023-12-14T15:26:41;8.38;79.57
71173;DHT22;58875;51.996;4.504;2023-12-14T15:29:09;8.30;79.61
71173;DHT22;58875;51.996;4.504;2023-12-14T15:31:35;8.27;79.69
71173;DHT22;58875;51.996;4.504;2023-12-14T15:34:00;8.23;79.69
71173;DHT22;58875;51.996;4.504;2023-12-14T15:36:27;8.22;79.65
71173;DHT22;58875;51.996;4.504;2023-12-14T15:38:52;8.22;79.64
71173;DHT22;58875;51.996;4.504;2023-12-14T15:41:18;8.29;79.48
71173;DHT22;58875;51.996;4.504;2023-12-14T15:43:44;8.26;79.17
71173;DHT22;58875;51.996;4.504;2023-12-14T15:46:10;8.30;79.05
71173;DHT22;58875;51.996;4.504;2023-12-14T15:48:36;8.30;78.80
71173;DHT22;58875;51.996;4.504;2023-12-14T15:51:06;8.23;78.80
71173;DHT22;58875;51.996;4.504;2023-12-14T15:53:32;8.17;78.28
71173;DHT22;58875;51.996;4.504;2023-12-14T15:55:58;8.16;78.16
71173;DHT22;58875;51.996;4.504;2023-12-14T15:58:24;8.13;77.76
71173;DHT22;58875;51.996;4.504;2023-12-14T16:00:51;8.13;77.43
71173;DHT22;58875;51.996;4.504;2023-12-14T16:03:16;8.10;77.28
71173;DHT22;58875;51.996;4.504;2023-12-14T16:05:42;8.17;77.12
71173;DHT22;58875;51.996;4.504;2023-12-14T16:08:08;8.16;76.66
71173;DHT22;58875;51.996;4.504;2023-12-14T16:10:34;8.16;76.47
71173;DHT22;58875;51.996;4.504;2023-12-14T16:13:00;8.22;75.65
71173;DHT22;58875;51.996;4.504;2023-12-14T16:15:25;8.22;75.58
71173;DHT22;58875;51.996;4.504;2023-12-14T16:17:51;8.26;75.58
71173;DHT22;58875;51.996;4.504;2023-12-14T16:20:16;8.26;75.53
71173;DHT22;58875;51.996;4.504;2023-12-14T16:22:45;8.26;75.35
71173;DHT22;58875;51.996;4.504;2023-12-14T16:25:12;8.29;75.07
71173;DHT22;58875;51.996;4.504;2023-12-14T16:27:40;8.17;75.46
71173;DHT22;58875;51.996;4.504;2023-12-14T16:30:06;8.19;75.61
71173;DHT22;58875;51.996;4.504;2023-12-14T16:32:31;8.27;75.39
71173;DHT22;58875;51.996;4.504;2023-12-14T16:34:57;8.27;75.09
71173;DHT22;58875;51.996;4.504;2023-12-14T16:37:22;8.23;75.22
71173;DHT22;58875;51.996;4.504;2023-12-14T16:39:56;8.22;75.21
71173;DHT22;58875;51.996;4.504;2023-12-14T16:42:23;8.20;75.15
71173;DHT22;58875;51.996;4.504;2023-12-14T16:44:48;8.14;75.32
71173;DHT22;58875;51.996;4.504;2023-12-14T16:47:14;8.09;75.32